createdAt,value
2023-04-01T00:01:27.012Z,7.35
2023-04-01T00:07:16.247Z,7.27
2023-04-01T00:13:50.020Z,7.20
2023-04-01T00:20:53.712Z,7.13
2023-04-01T00:27:26.142Z,7.15
2023-04-01T00:33:35.248Z,7.14
2023-04-01T00:39:56.460Z,7.07
2023-04-01T00:46:34.265Z,7.02
2023-04-01T00:52:53.661Z,7.05
2023-04-01T00:59:24.688Z,7.17
2023-04-01T01:06:12.308Z,7.32
2023-04-01T01:12:37.889Z,7.45
2023-04-01T01:19:37.391Z,7.52
2023-04-01T01:26:32.738Z,7.52
2023-04-01T01:32:53.720Z,7.47
2023-04-01T01:39:44.788Z,7.32
2023-04-01T01:45:08.621Z,7.20
2023-04-01T01:50:39.389Z,7.11
2023-04-01T01:57:01.279Z,7.04
2023-04-01T02:03:37.810Z,6.99
2023-04-01T02:10:01.618Z,6.97
2023-04-01T02:16:53.704Z,7.01
2023-04-01T02:23:11.768Z,7.05
2023-04-01T02:29:58.952Z,7.12
2023-04-01T02:36:43.999Z,7.18
2023-04-01T02:43:18.386Z,7.25
2023-04-01T02:50:08.915Z,7.31
2023-04-01T02:56:56.733Z,7.34
2023-04-01T03:03:46.462Z,7.32
2023-04-01T03:10:32.130Z,7.22
2023-04-01T03:16:41.306Z,7.07
2023-04-01T03:22:31.989Z,6.96
2023-04-01T03:28:58.417Z,6.83
2023-04-01T03:35:06.939Z,6.73
2023-04-01T03:41:31.840Z,6.69
2023-04-01T03:48:03.063Z,6.74
2023-04-01T03:54:07.239Z,6.85
2023-04-01T04:00:16.819Z,6.98
2023-04-01T04:06:26.399Z,7.11
2023-04-01T04:13:12.600Z,7.22
2023-04-01T04:19:03.190Z,7.33
2023-04-01T04:25:28.777Z,7.39
2023-04-01T04:31:24.933Z,7.45
2023-04-01T04:36:55.104Z,7.52
2023-04-01T04:42:10.097Z,7.59
2023-04-01T04:47:31.845Z,7.64
2023-04-01T04:52:47.047Z,7.71
2023-04-01T04:58:02.507Z,7.80
2023-04-01T05:03:08.893Z,7.86
2023-04-01T05:08:37.079Z,7.93
2023-04-01T05:13:46.125Z,8.02
2023-04-01T05:19:00.309Z,8.09
2023-04-01T05:24:44.118Z,8.14
2023-04-01T05:30:02.675Z,8.22
2023-04-01T05:36:49.520Z,8.30
2023-04-01T05:42:39.403Z,8.39
2023-04-01T05:48:53.520Z,8.46
2023-04-01T05:54:38.964Z,8.55
2023-04-01T06:00:24.072Z,8.65
2023-04-01T06:05:50.468Z,8.73
2023-04-01T06:12:09.414Z,8.82
2023-04-01T06:18:44.252Z,8.92
2023-04-01T06:25:03.327Z,8.98
2023-04-01T06:31:58.476Z,9.04
2023-04-01T06:38:17.374Z,9.05
2023-04-01T06:45:18.354Z,9.09
2023-04-01T06:52:36.359Z,9.21
2023-04-01T06:59:03.076Z,9.25
2023-04-01T07:04:46.075Z,9.25
2023-04-01T07:10:11.436Z,9.26
2023-04-01T07:16:40.860Z,9.28
2023-04-01T07:22:39.982Z,9.35
2023-04-01T07:29:15.555Z,9.51
2023-04-01T07:35:55.066Z,9.76
2023-04-01T07:41:36.441Z,10.03
2023-04-01T07:47:31.790Z,10.36
2023-04-01T07:52:53.424Z,10.61
2023-04-01T07:58:21.928Z,10.80
2023-04-01T08:04:45.995Z,11.16
2023-04-01T08:10:24.548Z,11.74
2023-04-01T08:16:36.661Z,12.18
2023-04-01T08:21:46.887Z,12.23
2023-04-01T08:26:53.106Z,12.09
2023-04-01T08:32:10.083Z,11.96
2023-04-01T08:37:53.885Z,12.20
2023-04-01T08:43:35.387Z,12.43
2023-04-01T08:48:51.614Z,12.67
2023-04-01T08:54:18.131Z,12.89
2023-04-01T09:00:11.220Z,12.73
2023-04-01T09:06:06.307Z,12.44
2023-04-01T09:11:59.776Z,12.55
2023-04-01T09:17:47.470Z,12.92
2023-04-01T09:23:29.260Z,13.22
2023-04-01T11:51:00.469Z,12.41
2023-04-01T11:56:32.733Z,12.43
2023-04-01T12:01:44.415Z,12.57
2023-04-01T12:07:00.455Z,12.67
2023-04-01T12:12:25.261Z,12.73
2023-04-01T12:18:09.232Z,12.94
2023-04-01T12:23:11.324Z,13.03
2023-04-01T12:28:42.944Z,12.93
2023-04-01T12:34:03.152Z,13.05
2023-04-01T12:39:20.211Z,13.55
2023-04-01T12:45:04.305Z,13.64
2023-04-01T12:50:18.357Z,13.43
2023-04-01T12:55:44.018Z,13.38
2023-04-01T13:01:02.966Z,13.41
2023-04-01T13:06:45.787Z,13.29
2023-04-01T13:13:11.198Z,13.21
2023-04-01T13:18:33.545Z,13.20
2023-04-01T13:24:10.438Z,13.20
2023-04-01T13:29:47.099Z,13.28
2023-04-01T13:35:01.459Z,13.25
2023-04-01T13:41:02.191Z,13.14
2023-04-01T13:46:51.691Z,12.99
2023-04-01T13:52:25.488Z,12.67
2023-04-01T13:57:40.533Z,12.32
2023-04-01T14:02:55.859Z,12.02
2023-04-01T14:08:20.928Z,11.66
2023-04-01T14:13:42.289Z,11.32
2023-04-01T14:19:22.201Z,10.92
2023-04-01T14:24:54.107Z,10.51
2023-04-01T14:30:13.344Z,10.36
2023-04-01T14:35:54.226Z,10.39
2023-04-01T14:41:43.144Z,10.50
2023-04-01T14:47:30.722Z,10.58
2023-04-01T14:52:44.489Z,10.63
2023-04-01T14:58:13.693Z,10.73
2023-04-01T15:04:10.470Z,10.85
2023-04-01T15:09:39.926Z,10.88
2023-04-01T15:15:26.501Z,10.83
2023-04-01T15:20:57.998Z,10.79
2023-04-01T15:26:21.571Z,10.74
2023-04-01T15:31:39.715Z,10.62
2023-04-01T15:37:06.276Z,10.49
2023-04-01T15:42:30.564Z,10.40
2023-04-01T15:47:44.258Z,10.31
2023-04-01T15:53:37.642Z,10.23
2023-04-01T15:59:06.467Z,10.13
2023-04-01T16:04:37.424Z,10.00
2023-04-01T16:09:58.088Z,9.90
2023-04-01T16:15:25.601Z,9.86
2023-04-01T16:21:09.059Z,9.85
2023-04-01T16:26:24.442Z,9.83
2023-04-01T16:31:58.571Z,9.75
2023-04-01T16:37:38.632Z,9.62
2023-04-01T16:43:10.164Z,9.50
2023-04-01T16:48:46.537Z,9.39
2023-04-01T16:54:32.067Z,9.31
2023-04-01T16:59:42.177Z,9.24
2023-04-01T17:05:14.524Z,9.20
2023-04-01T17:11:00.203Z,9.14
2023-04-01T17:16:29.389Z,9.06
2023-04-01T17:22:04.905Z,8.98
2023-04-01T17:27:35.028Z,8.82
2023-04-01T17:33:06.567Z,8.66
2023-04-01T17:38:46.096Z,8.52
2023-04-01T17:44:04.552Z,8.40
2023-04-01T17:49:27.934Z,8.35
2023-04-01T17:55:19.321Z,8.30
2023-04-01T18:00:42.315Z,8.25
2023-04-01T18:06:11.517Z,8.23
2023-04-01T18:11:40.189Z,8.23
2023-04-01T18:17:33.851Z,8.24
2023-04-01T18:22:56.313Z,8.22
2023-04-01T18:28:35.504Z,8.22
2023-04-01T18:34:21.649Z,8.23
2023-04-01T18:39:38.300Z,8.19
2023-04-01T18:45:08.082Z,8.17
2023-04-01T18:50:45.116Z,8.15
2023-04-01T18:55:57.381Z,8.13
2023-04-01T19:01:13.901Z,8.11
2023-04-01T19:06:31.855Z,8.09
2023-04-01T19:12:01.318Z,8.09
2023-04-01T19:17:48.189Z,8.08
2023-04-01T19:23:08.852Z,8.07
2023-04-01T19:28:32.939Z,8.05
2023-04-01T19:34:25.906Z,8.01
2023-04-01T19:39:49.951Z,7.96
2023-04-01T19:45:34.245Z,7.94
2023-04-01T19:51:21.224Z,7.92
2023-04-01T19:56:44.721Z,7.90
2023-04-01T20:02:29.134Z,7.89
2023-04-01T20:07:47.250Z,7.90
2023-04-01T20:13:07.858Z,7.87
2023-04-01T20:18:49.840Z,7.83
2023-04-01T20:24:02.942Z,7.77
2023-04-01T20:30:01.073Z,7.72
2023-04-01T20:35:48.612Z,7.66
2023-04-01T20:41:28.580Z,7.64
2023-04-01T20:46:57.258Z,7.65
2023-04-01T20:52:42.053Z,7.71
2023-04-01T20:58:18.820Z,7.74
2023-04-01T21:03:32.489Z,7.74
2023-04-01T21:09:01.773Z,7.76
2023-04-01T21:14:37.062Z,7.82
2023-04-01T21:20:07.630Z,7.87
2023-04-01T21:25:57.986Z,7.92
2023-04-01T21:31:47.614Z,7.96
2023-04-01T21:37:04.466Z,7.99
2023-04-01T21:42:54.928Z,7.99
2023-04-01T21:48:25.419Z,7.99
2023-04-01T21:54:23.237Z,7.99
2023-04-01T22:00:12.278Z,7.99
2023-04-01T22:05:18.737Z,7.99
2023-04-01T22:10:40.201Z,7.98
2023-04-01T22:16:13.104Z,7.92
2023-04-01T22:21:50.322Z,7.92
2023-04-01T22:27:20.553Z,7.90
2023-04-01T22:33:01.568Z,7.87
2023-04-01T22:38:36.913Z,7.81
2023-04-01T22:43:50.473Z,7.74
2023-04-01T22:49:02.821Z,7.68
2023-04-01T22:54:45.171Z,7.64
2023-04-01T22:59:58.311Z,7.63
2023-04-01T23:05:05.138Z,7.63
2023-04-01T23:10:22.333Z,7.66
2023-04-01T23:15:47.740Z,7.71
2023-04-01T23:21:11.626Z,7.75
2023-04-01T23:26:27.093Z,7.75
2023-04-01T23:31:36.772Z,7.77
2023-04-01T23:36:40.883Z,7.80
2023-04-01T23:42:04.265Z,7.79
2023-04-01T23:47:29.507Z,7.83
2023-04-01T23:52:42.791Z,7.83
2023-04-01T23:58:28.084Z,7.83
